createdAt,value
2022-10-10T00:01:48.845Z,1.20
2022-10-10T00:04:17.051Z,1.60
2022-10-10T00:06:44.921Z,1.50
2022-10-10T00:09:14.530Z,1.10
2022-10-10T00:11:43.131Z,1.40
2022-10-10T00:14:10.987Z,1.40
2022-10-10T00:16:38.818Z,1.40
2022-10-10T00:19:06.821Z,1.40
2022-10-10T00:21:34.582Z,1.33
2022-10-10T00:24:02.488Z,1.40
2022-10-10T00:26:32.770Z,1.50
2022-10-10T00:29:00.742Z,1.53
2022-10-10T00:31:28.739Z,1.20
2022-10-10T00:33:56.775Z,1.23
2022-10-10T00:36:24.575Z,1.67
2022-10-10T00:38:52.962Z,1.30
2022-10-10T00:41:24.322Z,1.43
2022-10-10T00:44:08.301Z,1.23
2022-10-10T00:46:36.327Z,1.30
2022-10-10T00:49:06.146Z,1.40
2022-10-10T00:51:34.664Z,1.50
2022-10-10T00:54:05.220Z,1.17
2022-10-10T00:56:38.464Z,1.60
2022-10-10T00:59:11.343Z,1.30
2022-10-10T01:01:39.398Z,1.10
2022-10-10T01:04:07.600Z,1.63
2022-10-10T01:06:36.007Z,1.20
2022-10-10T01:09:04.345Z,1.20
2022-10-10T01:11:49.621Z,1.30
2022-10-10T01:14:29.831Z,1.40
2022-10-10T01:17:05.303Z,1.43
2022-10-10T01:20:13.234Z,1.50
2022-10-10T01:22:52.705Z,1.33
2022-10-10T01:25:30.760Z,1.30
2022-10-10T01:28:03.628Z,1.30
2022-10-10T01:30:36.356Z,1.53
2022-10-10T01:33:10.191Z,1.13
2022-10-10T01:35:51.046Z,1.30
2022-10-10T01:38:30.199Z,1.70
2022-10-10T01:41:05.301Z,1.37
2022-10-10T01:43:33.895Z,1.50
2022-10-10T01:46:11.698Z,1.50
2022-10-10T01:48:40.426Z,1.40
2022-10-10T01:51:26.712Z,1.40
2022-10-10T01:54:00.653Z,1.40
2022-10-10T01:56:36.665Z,1.50
2022-10-10T01:59:16.823Z,1.57
2022-10-10T02:01:53.876Z,1.27
2022-10-10T02:04:31.025Z,1.40
2022-10-10T02:07:04.026Z,1.50
2022-10-10T02:09:37.873Z,1.30
2022-10-10T02:12:08.740Z,1.67
2022-10-10T02:14:41.651Z,1.50
2022-10-10T02:17:13.087Z,1.67
2022-10-10T02:19:45.929Z,1.47
2022-10-10T02:22:15.123Z,1.20
2022-10-10T02:24:44.450Z,1.77
2022-10-10T02:27:18.327Z,1.27
2022-10-10T02:29:49.091Z,1.50
2022-10-10T02:32:23.734Z,1.50
2022-10-10T02:34:56.310Z,1.30
2022-10-10T02:37:25.763Z,1.43
2022-10-10T02:39:59.570Z,1.30
2022-10-10T02:42:29.215Z,1.67
2022-10-10T02:44:58.411Z,1.47
2022-10-10T02:47:27.892Z,1.30
2022-10-10T02:49:55.968Z,1.43
2022-10-10T02:52:24.148Z,1.33
2022-10-10T02:54:51.872Z,1.40
2022-10-10T02:57:20.711Z,1.40
2022-10-10T02:59:48.664Z,1.57
2022-10-10T03:02:16.777Z,1.50
2022-10-10T03:04:46.150Z,1.33
2022-10-10T03:07:14.220Z,1.50
2022-10-10T03:09:42.069Z,1.90
2022-10-10T03:12:09.936Z,1.50
2022-10-10T03:14:37.782Z,1.40
2022-10-10T03:17:05.644Z,1.40
2022-10-10T03:19:34.452Z,1.30
2022-10-10T03:22:03.866Z,1.50
2022-10-10T03:24:32.088Z,1.47
2022-10-10T03:27:00.393Z,1.60
2022-10-10T03:29:28.515Z,1.53
2022-10-10T03:31:56.395Z,1.50
2022-10-10T03:34:24.216Z,1.40
2022-10-10T03:36:52.347Z,1.70
2022-10-10T03:39:22.275Z,1.60
2022-10-10T03:41:50.742Z,1.40
2022-10-10T03:44:18.891Z,1.60
2022-10-10T03:46:47.008Z,1.80
2022-10-10T03:49:14.977Z,1.70
2022-10-10T03:51:42.794Z,1.63
2022-10-10T03:54:10.946Z,1.70
2022-10-10T03:56:40.436Z,1.60
2022-10-10T03:59:08.353Z,1.60
2022-10-10T04:01:36.600Z,1.57
2022-10-10T04:04:06.231Z,1.50
2022-10-10T04:06:35.573Z,1.50
2022-10-10T04:09:05.648Z,1.30
2022-10-10T04:11:35.166Z,1.50
2022-10-10T04:14:04.432Z,1.53
2022-10-10T04:16:32.723Z,1.60
2022-10-10T04:19:00.469Z,1.60
2022-10-10T04:21:28.524Z,1.63
2022-10-10T04:23:56.422Z,1.50
2022-10-10T04:26:24.710Z,1.70
2022-10-10T04:28:52.626Z,1.50
2022-10-10T04:31:22.176Z,2.87
2022-10-10T04:33:54.296Z,1.83
2022-10-10T04:36:22.203Z,1.63
2022-10-10T04:38:50.461Z,1.60
2022-10-10T04:41:18.457Z,1.60
2022-10-10T04:43:46.298Z,1.43
2022-10-10T04:46:14.201Z,1.90
2022-10-10T04:48:43.448Z,1.50
2022-10-10T04:51:13.648Z,1.50
2022-10-10T04:53:41.559Z,1.90
2022-10-10T04:56:09.482Z,2.00
2022-10-10T04:58:38.576Z,1.70
2022-10-10T05:01:06.992Z,1.50
2022-10-10T05:03:35.819Z,1.97
2022-10-10T05:06:05.088Z,1.80
2022-10-10T05:08:33.272Z,1.90
2022-10-10T05:11:02.062Z,1.97
2022-10-10T05:13:30.818Z,1.90
2022-10-10T05:15:59.088Z,1.70
2022-10-10T05:18:27.106Z,2.47
2022-10-10T05:20:58.613Z,1.80
2022-10-10T05:23:30.712Z,2.10
2022-10-10T05:25:58.834Z,1.90
2022-10-10T05:28:26.851Z,1.73
2022-10-10T05:30:55.069Z,1.70
2022-10-10T05:33:22.876Z,1.70
2022-10-10T05:35:50.643Z,2.10
2022-10-10T05:38:18.465Z,1.70
2022-10-10T05:40:48.260Z,2.27
2022-10-10T05:43:16.053Z,2.00
2022-10-10T05:45:44.088Z,2.10
2022-10-10T05:48:13.896Z,2.33
2022-10-10T05:50:46.607Z,2.20
2022-10-10T05:53:14.679Z,2.10
2022-10-10T05:55:43.538Z,2.13
2022-10-10T05:58:14.475Z,1.90
2022-10-10T06:00:43.824Z,2.03
2022-10-10T06:03:14.217Z,1.80
2022-10-10T06:05:43.358Z,2.50
2022-10-10T06:08:12.469Z,2.10
2022-10-10T06:10:43.863Z,1.93
2022-10-10T06:13:14.999Z,1.87
2022-10-10T06:15:43.353Z,2.00
2022-10-10T06:18:11.846Z,1.80
2022-10-10T06:20:41.978Z,2.20
2022-10-10T06:23:11.604Z,2.10
2022-10-10T06:25:41.239Z,2.30
2022-10-10T06:28:11.961Z,2.23
2022-10-10T06:30:48.622Z,2.37
2022-10-10T06:33:18.710Z,2.50
2022-10-10T06:35:48.279Z,2.50
2022-10-10T06:38:19.720Z,2.27
2022-10-10T06:40:48.894Z,2.30
2022-10-10T06:43:18.062Z,2.53
2022-10-10T06:45:51.211Z,2.80
2022-10-10T06:48:19.102Z,3.00
2022-10-10T06:50:57.316Z,2.97
2022-10-10T06:53:25.495Z,2.30
2022-10-10T06:55:56.113Z,2.10
2022-10-10T06:58:25.510Z,1.90
2022-10-10T07:00:56.877Z,2.03
2022-10-10T07:03:25.546Z,1.67
2022-10-10T07:05:54.199Z,2.00
2022-10-10T07:08:23.062Z,2.20
2022-10-10T07:10:51.526Z,1.80
2022-10-10T07:13:19.886Z,2.00
2022-10-10T07:15:48.600Z,2.10
2022-10-10T07:18:18.534Z,1.93
2022-10-10T07:20:46.910Z,2.13
2022-10-10T07:23:15.316Z,1.97
2022-10-10T07:25:44.344Z,2.53
2022-10-10T07:28:13.020Z,2.10
2022-10-10T07:30:41.583Z,2.23
2022-10-10T07:33:09.411Z,2.20
2022-10-10T07:35:39.385Z,2.17
2022-10-10T07:38:08.503Z,2.40
2022-10-10T07:40:37.642Z,2.60
2022-10-10T07:43:06.455Z,2.43
2022-10-10T07:45:36.858Z,2.37
2022-10-10T07:48:05.093Z,2.67
2022-10-10T07:50:34.424Z,1.90
2022-10-10T07:53:03.902Z,2.10
2022-10-10T07:55:34.393Z,2.27
2022-10-10T07:58:03.802Z,2.37
2022-10-10T08:00:33.472Z,2.27
2022-10-10T08:03:01.264Z,2.30
2022-10-10T08:05:29.124Z,2.43
2022-10-10T08:07:57.156Z,2.80
2022-10-10T08:10:28.998Z,2.67
2022-10-10T08:12:58.074Z,2.80
2022-10-10T08:15:27.937Z,2.60
2022-10-10T08:17:59.598Z,2.13
2022-10-10T08:20:27.796Z,2.67
2022-10-10T08:22:55.488Z,2.20
2022-10-10T08:25:26.347Z,2.30
2022-10-10T08:27:54.484Z,2.93
2022-10-10T08:30:22.752Z,2.20
2022-10-10T08:32:51.090Z,2.60
2022-10-10T08:35:20.190Z,2.57
2022-10-10T08:37:48.079Z,2.30
2022-10-10T08:40:19.772Z,2.10
2022-10-10T08:42:54.411Z,2.27
2022-10-10T08:45:25.953Z,2.30
2022-10-10T08:47:56.791Z,2.40
2022-10-10T08:50:28.319Z,2.40
2022-10-10T08:52:59.687Z,2.77
2022-10-10T08:55:33.742Z,2.20
2022-10-10T08:58:08.178Z,1.97
2022-10-10T09:00:43.023Z,2.33
2022-10-10T09:03:21.809Z,2.43
2022-10-10T09:06:04.716Z,2.40
2022-10-10T09:08:40.780Z,2.50
2022-10-10T09:11:18.033Z,2.50
2022-10-10T09:13:54.373Z,2.00
2022-10-10T09:16:33.103Z,2.13
2022-10-10T09:19:17.509Z,2.30
2022-10-10T09:21:47.346Z,2.47
2022-10-10T09:24:21.298Z,2.00
2022-10-10T09:26:52.587Z,2.17
2022-10-10T09:29:39.151Z,2.30
2022-10-10T09:32:13.219Z,2.23
2022-10-10T09:34:44.378Z,2.20
2022-10-10T09:37:24.380Z,2.37
2022-10-10T09:40:10.790Z,2.57
2022-10-10T09:42:40.282Z,2.33
2022-10-10T09:45:18.859Z,2.47
2022-10-10T09:47:47.495Z,2.40
2022-10-10T09:50:16.990Z,2.57
2022-10-10T09:52:47.187Z,2.30
2022-10-10T09:55:26.631Z,2.27
2022-10-10T09:57:56.756Z,2.90
2022-10-10T10:00:30.983Z,2.40
2022-10-10T10:03:10.856Z,2.30
2022-10-10T10:05:41.197Z,2.20
2022-10-10T10:08:21.012Z,2.27
2022-10-10T10:10:49.668Z,2.40
2022-10-10T10:13:24.610Z,2.07
2022-10-10T10:16:01.616Z,2.20
2022-10-10T10:18:30.950Z,2.10
2022-10-10T10:21:23.986Z,2.30
2022-10-10T10:23:58.259Z,2.37
2022-10-10T10:26:28.906Z,2.27
2022-10-10T10:28:59.244Z,2.37
2022-10-10T10:31:54.692Z,2.30
2022-10-10T10:34:48.327Z,2.40
2022-10-10T10:37:22.179Z,2.33
2022-10-10T10:40:04.449Z,2.20
2022-10-10T10:42:45.328Z,2.10
2022-10-10T10:45:17.611Z,2.60
2022-10-10T10:47:58.523Z,1.77
2022-10-10T10:50:36.343Z,2.20
2022-10-10T10:53:12.947Z,1.67
2022-10-10T10:55:46.076Z,2.27
2022-10-10T11:01:55.287Z,1.93
2022-10-10T11:05:23.227Z,2.40
2022-10-10T11:07:25.530Z,1.87
2022-10-10T11:09:58.039Z,1.80
2022-10-10T11:12:42.522Z,1.70
2022-10-10T11:15:17.065Z,1.67
2022-10-10T11:17:49.653Z,1.60
2022-10-10T11:20:25.962Z,1.60
2022-10-10T11:22:58.031Z,1.80
2022-10-10T11:25:30.742Z,1.40
2022-10-10T11:28:05.527Z,2.37
2022-10-10T11:30:36.987Z,1.53
2022-10-10T11:33:12.186Z,1.43
2022-10-10T11:35:47.572Z,1.67
2022-10-10T11:38:24.332Z,1.73
2022-10-10T11:40:59.547Z,1.83
2022-10-10T11:43:36.083Z,1.83
2022-10-10T11:46:10.271Z,2.10
2022-10-10T11:48:47.666Z,1.97
2022-10-10T11:51:25.929Z,1.77
2022-10-10T11:53:59.668Z,1.90
2022-10-10T11:56:33.187Z,1.60
2022-10-10T11:59:06.502Z,2.17
2022-10-10T12:01:37.831Z,2.17
2022-10-10T12:04:06.458Z,2.30
2022-10-10T12:06:42.815Z,1.97
2022-10-10T12:09:17.361Z,2.03
2022-10-10T12:11:51.001Z,1.60
2022-10-10T12:14:21.924Z,1.80
2022-10-10T12:16:50.135Z,1.90
2022-10-10T12:19:20.606Z,2.00
2022-10-10T12:21:59.983Z,1.77
2022-10-10T12:24:29.747Z,1.90
2022-10-10T12:27:29.957Z,1.97
2022-10-10T12:30:24.986Z,2.30
2022-10-10T12:32:54.511Z,1.80
2022-10-10T12:35:41.960Z,1.90
2022-10-10T12:38:21.503Z,2.00
2022-10-10T12:41:10.720Z,1.60
2022-10-10T12:43:42.288Z,2.20
2022-10-10T12:46:25.322Z,1.80
2022-10-10T12:49:07.289Z,1.90
2022-10-10T12:51:37.535Z,2.20
2022-10-10T12:54:08.741Z,1.73
2022-10-10T12:56:42.575Z,2.00
2022-10-10T12:59:21.742Z,1.93
2022-10-10T13:01:56.142Z,1.73
2022-10-10T13:04:25.904Z,1.80
2022-10-10T13:06:57.345Z,1.97
2022-10-10T13:09:34.677Z,2.00
2022-10-10T13:12:05.336Z,1.63
2022-10-10T13:14:41.959Z,1.70
2022-10-10T13:17:25.404Z,1.60
2022-10-10T13:19:56.058Z,2.10
2022-10-10T13:22:26.365Z,1.97
2022-10-10T13:24:55.958Z,1.90
2022-10-10T13:27:25.892Z,1.97
2022-10-10T13:29:55.040Z,1.80
2022-10-10T13:32:27.035Z,1.70
2022-10-10T13:34:58.404Z,1.60
2022-10-10T13:37:28.171Z,2.23
2022-10-10T13:39:58.571Z,2.00
2022-10-10T13:42:34.098Z,1.80
2022-10-10T13:45:03.894Z,1.67
2022-10-10T13:47:54.106Z,1.90
2022-10-10T13:50:26.206Z,1.60
2022-10-10T13:53:25.284Z,1.80
2022-10-10T13:56:02.075Z,2.00
2022-10-10T13:58:33.143Z,1.63
2022-10-10T14:01:03.724Z,1.77
2022-10-10T14:03:33.906Z,1.90
2022-10-10T14:06:02.282Z,1.50
2022-10-10T14:08:33.856Z,2.00
2022-10-10T14:11:06.442Z,1.60
2022-10-10T14:13:38.399Z,1.43
2022-10-10T14:16:14.515Z,1.60
2022-10-10T14:18:43.704Z,1.80
2022-10-10T14:21:11.845Z,1.60
2022-10-10T14:23:41.272Z,1.90
2022-10-10T14:26:18.009Z,1.60
2022-10-10T14:28:46.893Z,1.50
2022-10-10T14:31:15.221Z,1.80
2022-10-10T14:33:43.204Z,1.90
2022-10-10T14:36:13.525Z,1.80
2022-10-10T14:38:41.890Z,1.80
2022-10-10T14:41:14.089Z,1.90
2022-10-10T14:43:45.746Z,1.57
2022-10-10T14:46:18.586Z,1.80
2022-10-10T14:48:46.515Z,1.57
2022-10-10T14:51:34.544Z,1.60
2022-10-10T14:54:10.952Z,1.63
2022-10-10T14:57:08.925Z,2.07
2022-10-10T14:59:47.219Z,2.00
2022-10-10T15:02:17.476Z,2.13
2022-10-10T15:04:45.455Z,2.10
2022-10-10T15:07:15.342Z,1.90
2022-10-10T15:10:02.655Z,2.00
2022-10-10T15:12:34.700Z,2.70
2022-10-10T15:15:02.619Z,2.80
2022-10-10T15:17:33.823Z,2.40
2022-10-10T15:20:01.918Z,2.27
2022-10-10T15:22:29.905Z,2.10
2022-10-10T15:24:57.859Z,2.40
2022-10-10T15:27:27.924Z,2.23
2022-10-10T15:29:57.308Z,2.10
2022-10-10T15:32:25.854Z,2.50
2022-10-10T15:34:54.183Z,2.23
2022-10-10T15:37:25.554Z,2.70
2022-10-10T15:39:53.419Z,2.20
2022-10-10T15:42:23.056Z,2.70
2022-10-10T15:44:52.789Z,3.70
2022-10-10T15:47:22.332Z,4.13
2022-10-10T15:49:50.530Z,4.13
2022-10-10T15:52:19.585Z,2.77
2022-10-10T15:54:49.616Z,2.63
2022-10-10T15:57:19.056Z,2.53
2022-10-10T15:59:47.595Z,2.60
2022-10-10T16:02:16.016Z,2.77
2022-10-10T16:04:45.907Z,2.83
2022-10-10T16:07:31.701Z,2.93
2022-10-10T16:10:02.442Z,2.40
2022-10-10T16:12:30.984Z,2.70
2022-10-10T16:15:01.274Z,2.40
2022-10-10T16:17:32.706Z,3.13
2022-10-10T16:20:02.391Z,2.70
2022-10-10T16:22:30.360Z,3.37
2022-10-10T16:25:20.655Z,3.20
2022-10-10T16:27:46.858Z,3.67
2022-10-10T16:30:16.408Z,3.03
2022-10-10T16:32:44.362Z,2.97
2022-10-10T16:35:14.486Z,3.10
2022-10-10T16:37:43.530Z,2.57
2022-10-10T16:40:12.061Z,2.20
2022-10-10T16:42:39.999Z,2.70
2022-10-10T16:45:09.160Z,2.93
2022-10-10T16:47:37.573Z,2.90
2022-10-10T16:50:06.712Z,2.77
2022-10-10T16:52:38.833Z,3.03
2022-10-10T16:55:08.145Z,3.23
2022-10-10T16:57:36.509Z,2.83
2022-10-10T17:00:05.325Z,3.37
2022-10-10T17:02:34.420Z,3.30
2022-10-10T17:05:03.232Z,3.03
2022-10-10T17:07:31.263Z,3.20
2022-10-10T17:10:01.043Z,3.13
2022-10-10T17:12:29.174Z,3.20
2022-10-10T17:14:57.110Z,2.80
2022-10-10T17:17:25.047Z,3.50
2022-10-10T17:19:53.201Z,3.73
2022-10-10T17:22:22.130Z,4.00
2022-10-10T17:24:50.233Z,3.50
2022-10-10T17:27:20.648Z,4.30
2022-10-10T17:29:48.611Z,5.90
2022-10-10T17:32:16.847Z,4.83
2022-10-10T17:34:44.690Z,5.33
2022-10-10T17:37:12.630Z,6.27
2022-10-10T17:39:40.516Z,4.77
2022-10-10T17:42:08.572Z,5.53
2022-10-10T17:44:44.774Z,3.83
2022-10-10T17:47:16.845Z,3.03
2022-10-10T17:49:46.687Z,3.80
2022-10-10T17:52:20.222Z,3.37
2022-10-10T17:54:49.400Z,3.27
2022-10-10T17:57:17.291Z,3.90
2022-10-10T17:59:46.825Z,2.80
2022-10-10T18:02:16.584Z,3.57
2022-10-10T18:04:44.889Z,3.50
2022-10-10T18:07:13.369Z,4.17
2022-10-10T18:09:41.206Z,5.00
2022-10-10T18:12:09.126Z,5.50
2022-10-10T18:14:36.932Z,3.20
2022-10-10T18:17:06.230Z,2.70
2022-10-10T18:19:34.284Z,2.23
2022-10-10T18:22:02.268Z,2.40
2022-10-10T18:24:31.432Z,2.00
2022-10-10T18:26:59.287Z,2.33
2022-10-10T18:29:27.113Z,2.00
2022-10-10T18:31:56.612Z,1.83
2022-10-10T18:34:25.954Z,1.70
2022-10-10T18:36:55.165Z,1.93
2022-10-10T18:39:23.139Z,2.03
2022-10-10T18:41:51.242Z,1.67
2022-10-10T18:44:19.610Z,2.53
2022-10-10T18:46:47.577Z,1.73
2022-10-10T18:49:15.682Z,2.27
2022-10-10T18:51:46.399Z,1.67
2022-10-10T18:54:15.939Z,2.03
2022-10-10T18:56:44.501Z,2.03
2022-10-10T18:59:14.770Z,2.47
2022-10-10T19:01:44.207Z,1.47
2022-10-10T19:04:13.039Z,2.33
2022-10-10T19:06:42.008Z,2.23
2022-10-10T19:09:13.385Z,3.33
2022-10-10T19:11:43.306Z,2.13
2022-10-10T19:14:15.448Z,2.13
2022-10-10T19:16:44.513Z,2.20
2022-10-10T19:19:15.001Z,2.20
2022-10-10T19:21:45.624Z,2.07
2022-10-10T19:24:19.715Z,1.67
2022-10-10T19:26:52.097Z,2.07
2022-10-10T19:29:20.467Z,2.40
2022-10-10T19:31:49.465Z,2.23
2022-10-10T19:34:17.317Z,2.07
2022-10-10T19:36:45.111Z,2.70
2022-10-10T19:39:14.262Z,2.73
2022-10-10T19:41:42.404Z,2.73
2022-10-10T19:44:10.229Z,2.40
2022-10-10T19:46:38.085Z,2.27
2022-10-10T19:49:07.193Z,2.33
2022-10-10T19:51:35.918Z,2.30
2022-10-10T19:54:03.827Z,2.07
2022-10-10T19:56:33.093Z,1.93
2022-10-10T19:59:04.356Z,2.60
2022-10-10T20:01:32.976Z,2.23
2022-10-10T20:04:01.131Z,2.40
2022-10-10T20:06:30.382Z,2.53
2022-10-10T20:08:58.413Z,2.33
2022-10-10T20:11:27.026Z,1.90
2022-10-10T20:13:57.649Z,2.40
2022-10-10T20:16:27.082Z,2.40
2022-10-10T20:18:56.256Z,2.67
2022-10-10T20:21:29.293Z,2.63
2022-10-10T20:23:57.959Z,2.00
2022-10-10T20:26:26.777Z,3.00
2022-10-10T20:28:57.817Z,1.90
2022-10-10T20:31:27.737Z,2.30
2022-10-10T20:33:58.640Z,2.50
2022-10-10T20:36:26.992Z,2.60
2022-10-10T20:38:55.468Z,2.40
2022-10-10T20:41:25.033Z,2.37
2022-10-10T20:43:59.411Z,2.67
2022-10-10T20:46:30.951Z,2.20
2022-10-10T20:49:00.501Z,2.27
2022-10-10T20:51:29.950Z,2.60
2022-10-10T20:53:59.595Z,2.77
2022-10-10T20:56:28.789Z,2.20
2022-10-10T20:58:58.183Z,2.50
2022-10-10T21:01:28.577Z,2.30
2022-10-10T21:03:56.503Z,2.60
2022-10-10T21:06:29.157Z,2.10
2022-10-10T21:08:57.245Z,1.97
2022-10-10T21:11:25.513Z,2.80
2022-10-10T21:13:56.509Z,2.40
2022-10-10T21:16:28.242Z,2.83
2022-10-10T21:18:58.550Z,2.33
2022-10-10T21:21:27.583Z,2.40
2022-10-10T21:23:56.665Z,2.63
2022-10-10T21:26:26.658Z,2.10
2022-10-10T21:28:55.253Z,2.33
2022-10-10T21:31:26.457Z,2.53
2022-10-10T21:33:54.615Z,2.03
2022-10-10T21:36:23.803Z,3.60
2022-10-10T21:38:51.963Z,3.40
2022-10-10T21:41:21.804Z,3.70
2022-10-10T21:43:54.604Z,3.10
2022-10-10T21:46:24.431Z,3.03
2022-10-10T21:48:53.976Z,2.90
2022-10-10T21:51:22.840Z,3.43
2022-10-10T21:53:50.731Z,2.40
2022-10-10T21:56:19.421Z,2.40
2022-10-10T21:58:47.344Z,2.83
2022-10-10T22:01:17.029Z,2.47
2022-10-10T22:03:45.637Z,2.17
2022-10-10T22:06:17.007Z,1.87
2022-10-10T22:08:46.020Z,2.53
2022-10-10T22:11:17.543Z,2.00
2022-10-10T22:13:45.922Z,2.00
2022-10-10T22:16:14.279Z,1.80
2022-10-10T22:18:43.223Z,2.30
2022-10-10T22:21:19.716Z,2.27
2022-10-10T22:23:47.700Z,2.63
2022-10-10T22:26:18.203Z,2.23
2022-10-10T22:28:46.730Z,3.43
2022-10-10T22:31:19.187Z,2.97
2022-10-10T22:33:47.246Z,3.13
2022-10-10T22:36:15.712Z,3.40
2022-10-10T22:38:47.311Z,3.17
2022-10-10T22:41:15.351Z,2.73
2022-10-10T22:43:43.809Z,2.80
2022-10-10T22:46:11.497Z,2.03
2022-10-10T22:48:39.258Z,2.50
2022-10-10T22:51:09.155Z,1.87
2022-10-10T22:53:37.472Z,2.00
2022-10-10T22:56:08.254Z,2.00
2022-10-10T22:58:38.215Z,2.30
2022-10-10T23:01:07.470Z,2.10
2022-10-10T23:03:35.365Z,2.47
2022-10-10T23:06:03.748Z,2.43
2022-10-10T23:08:32.832Z,2.70
2022-10-10T23:11:00.763Z,2.73
2022-10-10T23:13:32.205Z,2.70
2022-10-10T23:16:00.568Z,2.50
2022-10-10T23:18:29.001Z,2.70
2022-10-10T23:20:58.209Z,2.80
2022-10-10T23:23:26.544Z,2.77
2022-10-10T23:25:54.503Z,1.90
2022-10-10T23:28:23.045Z,1.93
2022-10-10T23:30:52.984Z,1.43
2022-10-10T23:33:20.774Z,1.60
2022-10-10T23:35:58.200Z,1.23
2022-10-10T23:38:26.575Z,1.40
2022-10-10T23:40:54.678Z,1.33
2022-10-10T23:43:24.101Z,1.17
2022-10-10T23:45:54.031Z,1.10
2022-10-10T23:48:21.980Z,1.40
2022-10-10T23:50:49.942Z,1.30
2022-10-10T23:53:18.479Z,1.30
2022-10-10T23:55:47.136Z,1.30
2022-10-10T23:58:15.192Z,1.37
